Aérodrome :
LOGIN :

S'inscrire | Disclaimer

   EN    FR    IT 

 










Légende :    VFR   VFR Marginal   IFR   IFR Intensif   IFR Très Intensif
Visi : 
Plafond : 
>= 8 km
>= 3000ft
5 à 8 km
1000 à 3000 ft
1500m à 5 km
500 à 1000 ft
800 à 1500m
200 à 500 ft
< 800m
< 200 ft
Symboles :   Orages  Brouillard  Fortes neiges  Fortes précipitations  Vent > 20 kt
SIGMETs :   Divers  Orages  Givrage  Turbulence  Onde Orograph.  Cendres Volcan.






- Altitude de l'aérodrome : 1411 ft
- Code IATA : ZHI


LSZG - Grenchen

DERNIER METAR :
  • 122020Z AUTO VRB01KT CAVOK 21/17 Q1017

METARs EXPIRÉS :
  • 121950Z AUTO 18004KT CAVOK 22/15 Q1017
  • 121920Z AUTO 28004KT 260V320 CAVOK 22/15 Q1017
  • 121850Z VRB03KT 9999 //////TCU 23/15 Q1016 NOSIG
  • 121820Z VRB02KT 9999 VCTS FEW050CB 23/14 Q1016 RETSRA NOSIG
  • 121750Z VRB04KT 9999 VCTS FEW050CB 23/15 Q1015 NOSIG

TAF TAF LSZG
Valide du 12 à 15h jusqu'au 13 à 00h UTC


121425Z 1215/1224 VRB03KT 9999 FEW050
PROB40
TEMPO 1215/1220 25012G25KT 4000 TSGR SCT060CB
ATIS : +41 32 396 96 33



MET'MAP, la Météo Aéronautique d'un coup d'oeil ! - Copyright ORBIFLY Décembre 2007 - Disclaimer

ORBIFLY MET'MAP TEAM :

Programmation & Développement : Alexandra Zaïnal
Sur une idée originale de : Baudouin d'Aumeries
Assistance à la programmation : Marc-Olivier Méhu
Soutien technique & logistique : Manuel Goepfert

Contact : metmap@orbifly.com




SOURCES & CREDITS :

   NOAA